Haderslev, Denmark
Current Conditions -  °F | °C
As of 6:50 AM on Friday 28 Nov 2014 (Local Time) from EKSP Reporting Station
Broken Clouds Broken Clouds  
Wind Chill: 30°   Ceiling: 1800
Heat Index: 39°   Visibility: 6mi
Dew Point: 34°   Wind: 20mph
Humidity: 81%   Direction: 110°ESE
Pressure: 30.06"   Gusts: 31mph
Location:  55.25°N, 9.49°E
Report Text: EKSP 280550Z 11017G27KT 9999 BKN018 04/01 Q1018 NOSIG
Loading
Personal Weather Stations






























Interactive Weather Map New forecast layout! Learn more

10-Day Weather Forecast

Advertisements
Track Severe Weather on mobile